Estación Meteorológica Peña el Pijo (Robertgarden) [ 12/15/17 20:50:25 CET ]

Fecha Hora Presion(HPa) Temp (°C) Humedad % Rocio (°C) Viento ( m/s) Direccion Lluvia 1Hora(mm) Lluvia 24H(mm) LLuvia Total(mm)
2017-Jun-18 01:01:57 1012.000 18.9 67 12.6         1427.09
2017-Jun-18 02:01:49 1011.400 18.8 68 12.8         1427.09
2017-Jun-18 03:01:35 1011.200 18.1 70 12.6         1427.09
2017-Jun-18 04:01:36 1010.600 17.4 72 12.3         1427.09
2017-Jun-18 05:01:38 1010.600 17.1 73 12.2         1427.09
2017-Jun-18 06:01:41 1010.400 16.9 72 11.8         1427.09
2017-Jun-18 07:02:03 1010.400 18.1 66 11.6         1427.09
2017-Jun-18 08:01:43 1010.500 19.4 66 12.9         1427.09
2017-Jun-18 09:01:45 1010.600 21.8 59 13.4         1427.09
2017-Jun-18 10:01:49 1010.800 23.8 59 15.3         1427.09
2017-Jun-18 11:01:42 1010.700 28.9 46 16.1         1427.09
2017-Jun-18 12:01:44 1010.500 33.2 38 16.9         1427.09
2017-Jun-18 13:01:40 1010.200 35.3 32 16.0 1.9 S     1427.09
2017-Jun-18 14:01:38 1010.200 34.3 31 14.7         1427.09
2017-Jun-18 15:01:54 1010.100 31.8 33 13.4         1427.09
2017-Jun-18 16:01:33 1010.000 28.7 43 14.9         1427.09
2017-Jun-18 17:02:06 1009.700 25.3 61 17.2         1427.09
2017-Jun-18 18:01:31 1009.300 28.4 50 17.0         1427.09
2017-Jun-18 19:01:47 1009.700 31.1 31 11.9 0.8 NE     1427.09
2017-Jun-18 20:01:44 1011.400 26.8 39 11.7         1427.09
2017-Jun-18 21:01:49 1012.100 22.3 58 13.6         1427.09
2017-Jun-18 22:01:29 1012.000 20.4 66 13.8         1427.09
2017-Jun-18 23:02:02 1012.300 20.1 68 14.0         1427.09

Temperatura Máxima:35°    Temperatura Mínima:16°
Presión Máxima:1012.300 Hpa    Presión Mínima:1009.300 Hpa


Volver